Time;durP1;ratioP1;P1;durP2;ratioP2;P2;SDS_P1;SDS_P2;PMS_P1;PMS_P2;Temp;Humidity;BMP_temperature;BMP_pressure;BME280_temperature;BME280_humidity;BME280_pressure;Samples;Min_cycle;Max_cycle;Signal;HPM_P1;HPM_P2
2022/10/01 00:01:15;;;;;;;10.90;7.57;;;;;;;10.21;100.00;100322.53;5034083;28;20060;-81
2022/10/01 00:03:42;;;;;;;10.48;8.05;;;;;;;10.21;100.00;100312.22;5033745;28;20025;-81
2022/10/01 00:06:15;;;;;;;9.63;7.78;;;;;;;10.21;100.00;100326.88;5033866;28;20389;-82
2022/10/01 00:08:41;;;;;;;9.55;7.47;;;;;;;9.90;100.00;100251.59;5033814;28;20113;-81
2022/10/01 00:11:19;;;;;;;8.73;7.43;;;;;;;9.94;100.00;100267.72;5034130;28;20087;-82
2022/10/01 00:13:48;;;;;;;10.77;8.02;;;;;;;9.77;100.00;100231.00;5033742;28;20354;-81
2022/10/01 00:16:16;;;;;;;10.98;7.40;;;;;;;10.24;100.00;100295.75;5033940;28;20033;-82
2022/10/01 00:18:54;;;;;;;10.32;7.63;;;;;;;10.24;100.00;100294.00;5033102;28;20029;-82
2022/10/01 00:21:23;;;;;;;10.23;7.10;;;;;;;10.24;100.00;100282.84;5033728;28;20018;-81
2022/10/01 00:23:54;;;;;;;8.30;6.75;;;;;;;10.12;100.00;100261.25;5033734;28;20036;-81
2022/10/01 00:26:26;;;;;;;11.68;7.38;;;;;;;10.27;100.00;100290.34;5033882;28;20429;-80
2022/10/01 00:29:00;;;;;;;11.20;7.32;;;;;;;10.29;100.00;100288.50;5033513;28;20031;-82
2022/10/01 00:31:26;;;;;;;11.05;7.32;;;;;;;10.28;100.00;100279.09;5033357;28;20041;-83
2022/10/01 00:33:52;;;;;;;10.57;7.15;;;;;;;10.06;100.00;100226.41;5033446;28;20147;-82
2022/10/01 00:36:18;;;;;;;11.85;7.63;;;;;;;10.30;100.00;100274.66;5033341;28;20385;-81
2022/10/01 00:38:47;;;;;;;8.90;6.90;;;;;;;10.05;100.00;100209.28;5033264;28;20029;-80
2022/10/01 00:41:13;;;;;;;9.38;6.90;;;;;;;10.31;100.00;100274.53;5033281;28;20025;-81
2022/10/01 00:43:43;;;;;;;10.65;7.70;;;;;;;10.30;100.00;100262.56;5033344;28;20026;-81
2022/10/01 00:46:20;;;;;;;10.10;7.20;;;;;;;10.31;100.00;100255.66;5033370;28;20033;-80
2022/10/01 00:49:09;;;;;;;10.38;8.30;;;;;;;10.33;100.00;100253.81;5031670;28;20040;-80
2022/10/01 00:51:45;;;;;;;12.27;7.90;;;;;;;10.22;100.00;100233.91;5033220;28;20071;-79
2022/10/01 00:54:21;;;;;;;10.45;7.47;;;;;;;10.27;100.00;100262.78;5032875;28;20041;-79
2022/10/01 00:56:48;;;;;;;11.07;7.45;;;;;;;10.00;100.00;100211.34;5033166;28;20083;-81
2022/10/01 00:59:15;;;;;;;8.88;7.22;;;;;;;9.95;100.00;100200.53;5033051;28;20082;-80
2022/10/01 01:01:40;;;;;;;10.10;7.35;;;;;;;10.06;100.00;100217.84;5033011;28;20029;-82
2022/10/01 01:04:15;;;;;;;11.13;7.53;;;;;;;10.20;100.00;100251.22;5031208;28;20037;-81
2022/10/01 01:06:50;;;;;;;9.75;7.32;;;;;;;9.88;100.00;100198.50;5032651;28;20032;-80
2022/10/01 01:09:15;;;;;;;9.70;7.95;;;;;;;9.87;100.00;100208.00;5032938;28;20051;-81
2022/10/01 01:11:56;;;;;;;10.48;7.93;;;;;;;10.01;100.00;100243.94;5032371;28;20045;-81
2022/10/01 01:14:32;;;;;;;9.07;7.30;;;;;;;9.60;100.00;100186.69;5032879;28;20029;-81
2022/10/01 01:17:07;;;;;;;9.88;7.53;;;;;;;9.67;100.00;100157.00;5033459;28;20037;-83
2022/10/01 01:20:02;;;;;;;9.02;7.85;;;;;;;9.85;100.00;100145.38;5032970;28;20500;-83
2022/10/01 01:22:31;;;;;;;10.32;8.05;;;;;;;9.83;100.00;100139.50;5032736;28;20044;-83
2022/10/01 01:25:05;;;;;;;11.77;7.65;;;;;;;9.31;100.00;100057.28;5033134;28;20021;-84
2022/10/01 01:27:39;;;;;;;9.45;7.18;;;;;;;9.76;100.00;100115.91;5033070;28;20038;-83
2022/10/01 01:30:10;;;;;;;9.95;6.82;;;;;;;9.56;100.00;100105.38;5031642;28;20397;-84
2022/10/01 01:33:02;;;;;;;9.80;7.40;;;;;;;9.75;100.00;100141.81;5033010;28;20045;-85
2022/10/01 01:35:42;;;;;;;11.80;7.25;;;;;;;9.60;100.00;100143.69;5032326;28;20074;-82
2022/10/01 01:38:18;;;;;;;10.13;7.03;;;;;;;9.60;100.00;100127.41;5031396;28;20435;-81
2022/10/01 01:40:46;;;;;;;8.80;6.43;;;;;;;9.49;100.00;100115.28;5031320;28;20025;-82
2022/10/01 01:46:20;;;;;;;9.30;6.65;;;;;;;9.79;100.00;100171.59;5275738;22;20489;-84
2022/10/01 01:49:38;;;;;;;8.27;5.72;;;;;;;9.80;100.00;100162.09;5026873;28;20037;-82
2022/10/01 01:52:18;;;;;;;7.53;5.60;;;;;;;9.35;100.00;100062.13;5032445;28;20033;-86
2022/10/01 01:54:51;;;;;;;6.97;5.57;;;;;;;8.77;100.00;99975.22;5032559;28;20040;-86
2022/10/01 01:57:52;;;;;;;7.63;5.90;;;;;;;9.82;100.00;100140.44;5014801;28;20033;-86
2022/10/01 02:00:27;;;;;;;8.53;5.40;;;;;;;8.76;100.00;99965.84;5032480;28;20111;-86
2022/10/01 02:07:04;;;;;;;7.93;5.80;;;;;;;9.41;100.00;100064.25;5031812;28;20182;-84
2022/10/01 02:10:12;;;;;;;7.20;5.10;;;;;;;9.86;100.00;100133.31;5032328;28;20388;-84
2022/10/01 02:13:05;;;;;;;8.02;5.38;;;;;;;9.86;100.00;100120.41;5032647;28;20288;-84
2022/10/01 02:16:17;;;;;;;8.10;5.20;;;;;;;9.84;100.00;100117.97;5032572;28;20029;-81
2022/10/01 02:18:55;;;;;;;7.47;5.10;;;;;;;8.97;100.00;99969.50;5030832;28;20040;-83
2022/10/01 02:21:40;;;;;;;7.32;5.45;;;;;;;9.80;100.00;100105.38;5032058;28;20038;-83
2022/10/01 02:24:18;;;;;;;7.15;5.20;;;;;;;9.15;100.00;99993.16;5034134;28;20028;-85
2022/10/01 02:26:57;;;;;;;6.70;4.75;;;;;;;8.68;100.00;99917.47;5035979;28;20559;-84
2022/10/01 02:29:23;;;;;;;7.00;4.68;;;;;;;9.03;100.00;99969.06;5035521;28;20048;-81
2022/10/01 02:31:52;;;;;;;6.40;4.30;;;;;;;9.65;100.00;100072.03;5035713;28;20034;-82
2022/10/01 02:34:21;;;;;;;6.13;4.20;;;;;;;9.77;100.00;100085.78;5035670;28;20473;-82
2022/10/01 02:36:48;;;;;;;6.70;4.30;;;;;;;9.56;100.00;100053.81;5035586;28;20037;-84
2022/10/01 02:39:16;;;;;;;7.43;4.50;;;;;;;9.73;100.00;100074.03;5035810;28;20051;-80
2022/10/01 02:42:04;;;;;;;6.25;4.65;;;;;;;9.58;100.00;100049.38;5035647;28;20025;-84
2022/10/01 02:44:39;;;;;;;5.45;3.95;;;;;;;9.80;100.00;100077.00;5017665;28;20461;-83
2022/10/01 02:47:39;;;;;;;5.30;3.90;;;;;;;9.80;100.00;100077.00;5035424;28;20096;-83
2022/10/01 02:50:06;;;;;;;5.45;4.00;;;;;;;9.75;100.00;100051.56;5003765;28;20120;-80
2022/10/01 02:52:57;;;;;;;4.85;3.65;;;;;;;9.67;100.00;100028.91;5017172;28;20115;-84
2022/10/01 02:55:27;;;;;;;5.72;3.72;;;;;;;9.54;100.00;100028.16;5035482;28;20028;-83
2022/10/01 02:57:53;;;;;;;5.50;3.50;;;;;;;9.85;100.00;100069.78;5035370;28;20105;-81
2022/10/01 03:00:21;;;;;;;4.70;3.53;;;;;;;9.85;100.00;100051.72;5035220;28;20108;-82
2022/10/01 03:02:50;;;;;;;5.13;3.40;;;;;;;9.86;100.00;100072.25;5035390;28;20104;-85
2022/10/01 03:05:16;;;;;;;5.47;3.60;;;;;;;9.87;100.00;100067.91;5127693;23;20076;-84
2022/10/01 03:07:42;;;;;;;5.97;3.50;;;;;;;9.65;100.00;100017.06;5054885;28;20067;-84
2022/10/01 03:10:09;;;;;;;4.40;2.88;;;;;;;9.92;100.00;100073.53;5054910;28;20021;-84
2022/10/01 03:12:35;;;;;;;4.80;3.28;;;;;;;9.70;100.00;100014.97;5055290;28;20427;-84
2022/10/01 03:15:01;;;;;;;4.05;3.00;;;;;;;9.71;100.00;100045.78;5054920;28;20079;-84
2022/10/01 03:17:27;;;;;;;4.85;3.15;;;;;;;9.80;100.00;100056.38;5055002;28;20104;-86
2022/10/01 03:19:52;;;;;;;5.25;2.90;;;;;;;9.71;100.00;100011.47;5054863;28;20487;-83
2022/10/01 03:22:21;;;;;;;4.28;2.65;;;;;;;9.81;100.00;100033.06;5054568;28;20390;-84
2022/10/01 03:24:47;;;;;;;3.83;2.65;;;;;;;9.88;100.00;100051.50;5036750;28;20476;-83
2022/10/01 03:27:19;;;;;;;5.15;2.60;;;;;;;9.95;100.00;100055.28;5054647;28;20426;-85
2022/10/01 03:29:44;;;;;;;5.20;2.65;;;;;;;9.92;100.00;100042.59;5054190;28;20033;-81
2022/10/01 03:32:10;;;;;;;3.72;2.67;;;;;;;10.06;100.00;100050.16;5054660;28;20033;-84
2022/10/01 03:34:36;;;;;;;4.05;2.55;;;;;;;10.10;100.00;100053.34;5054139;28;20025;-83
2022/10/01 03:37:09;;;;;;;3.75;2.60;;;;;;;10.12;100.00;100052.28;5054384;28;20491;-85
2022/10/01 03:39:57;;;;;;;3.78;2.13;;;;;;;9.38;100.00;99930.50;5054309;28;20098;-83
2022/10/01 03:42:22;;;;;;;3.78;2.38;;;;;;;9.77;100.00;99977.50;5054333;28;20029;-83
2022/10/01 03:44:51;;;;;;;3.13;2.10;;;;;;;10.25;100.00;100052.25;5054301;28;20082;-85
2022/10/01 03:47:28;;;;;;;2.92;2.10;;;;;;;10.16;100.00;100029.69;5054288;28;20380;-84
2022/10/01 03:49:54;;;;;;;2.38;1.90;;;;;;;10.30;100.00;100053.53;5054434;28;20464;-82
2022/10/01 03:52:19;;;;;;;4.00;2.00;;;;;;;10.34;100.00;100067.06;5054051;28;20025;-83
2022/10/01 03:54:44;;;;;;;3.05;2.00;;;;;;;10.38;100.00;100070.22;5054237;28;20025;-85
2022/10/01 03:57:10;;;;;;;5.47;1.70;;;;;;;10.38;100.00;100075.38;5054430;28;20099;-81
2022/10/01 03:59:35;;;;;;;2.92;1.65;;;;;;;10.26;100.00;100046.16;5054201;28;20024;-84
2022/10/01 04:02:00;;;;;;;5.00;1.80;;;;;;;10.43;100.00;100068.97;5054111;28;20071;-83
2022/10/01 04:04:27;;;;;;;2.40;1.48;;;;;;;10.29;100.00;100045.91;5054510;28;20029;-83
2022/10/01 04:06:53;;;;;;;2.50;1.80;;;;;;;10.32;100.00;100045.69;5053743;28;20044;-81
2022/10/01 04:09:18;;;;;;;3.70;1.60;;;;;;;10.14;100.00;100009.16;5054052;28;20075;-82
2022/10/01 04:11:43;;;;;;;2.20;1.60;;;;;;;10.53;100.00;100067.34;5053938;28;20032;-83
2022/10/01 04:14:09;;;;;;;1.83;1.30;;;;;;;10.56;100.00;100063.69;5053930;28;20029;-86
2022/10/01 04:16:35;;;;;;;1.42;1.30;;;;;;;10.59;100.00;100064.28;5053859;28;20037;-86
2022/10/01 04:19:01;;;;;;;2.88;1.40;;;;;;;10.32;100.00;100020.72;5053945;28;20021;-84
2022/10/01 04:21:27;;;;;;;1.90;1.70;;;;;;;10.65;100.00;100064.75;5056174;28;20103;-85
2022/10/01 04:23:53;;;;;;;2.58;1.55;;;;;;;10.26;100.00;99997.94;5055294;28;20025;-85
2022/10/01 04:26:18;;;;;;;1.98;1.30;;;;;;;9.71;100.00;99913.50;5053709;28;20013;-85
2022/10/01 04:28:45;;;;;;;1.92;1.50;;;;;;;10.74;100.00;100066.66;5053645;28;20063;-83
2022/10/01 04:31:23;;;;;;;1.77;1.30;;;;;;;10.52;100.00;100034.72;5053520;28;20064;-83
2022/10/01 04:33:49;;;;;;;2.88;1.35;;;;;;;10.77;100.00;100076.75;5053587;28;20082;-82
2022/10/01 04:36:14;;;;;;;1.77;1.40;;;;;;;10.78;100.00;100076.63;5053685;28;20036;-81
2022/10/01 04:38:39;;;;;;;2.92;1.30;;;;;;;10.80;100.00;100073.91;5053375;28;20037;-82
2022/10/01 04:41:05;;;;;;;3.13;1.73;;;;;;;10.81;100.00;100081.53;5053484;28;20357;-81
2022/10/01 04:43:30;;;;;;;2.03;1.30;;;;;;;10.79;100.00;100077.44;5053420;28;20033;-82
2022/10/01 04:45:56;;;;;;;1.83;1.33;;;;;;;10.84;100.00;100090.84;5052651;28;20021;-83
2022/10/01 04:48:21;;;;;;;2.25;1.50;;;;;;;10.84;100.00;100096.81;5053195;28;20100;-83
2022/10/01 04:50:46;;;;;;;2.95;1.40;;;;;;;10.89;100.00;100096.47;5053356;28;20112;-81
2022/10/01 04:53:12;;;;;;;1.65;1.30;;;;;;;10.64;100.00;100061.34;5053101;28;20021;-81
2022/10/01 04:55:37;;;;;;;1.85;1.60;;;;;;;10.85;100.00;100087.31;5053236;28;20032;-82
2022/10/01 04:58:02;;;;;;;1.50;1.40;;;;;;;10.94;100.00;100103.88;5035238;28;20037;-80
2022/10/01 05:00:28;;;;;;;2.45;1.70;;;;;;;10.97;100.00;100108.81;5053108;28;20027;-82
2022/10/01 05:02:54;;;;;;;2.92;1.60;;;;;;;10.98;100.00;100110.44;5053019;28;20427;-80
2022/10/01 05:05:22;;;;;;;2.17;1.70;;;;;;;10.99;100.00;100112.09;5052666;28;20052;-82
2022/10/01 05:07:48;;;;;;;3.33;2.00;;;;;;;11.02;100.00;100112.69;5052965;28;20396;-83
2022/10/01 05:10:17;;;;;;;1.85;1.50;;;;;;;11.04;100.00;100120.31;5052953;28;20021;-83
2022/10/01 05:12:43;;;;;;;2.78;2.00;;;;;;;10.79;100.00;100075.69;5052872;28;20055;-81
2022/10/01 05:15:09;;;;;;;2.90;1.90;;;;;;;10.74;100.00;100072.63;5052915;28;20025;-79
2022/10/01 05:17:34;;;;;;;3.40;2.20;;;;;;;11.07;100.00;100114.91;5052919;28;20459;-82
2022/10/01 05:20:00;;;;;;;3.42;2.10;;;;;;;11.09;100.00;100131.13;5052862;28;20119;-83
2022/10/01 05:22:26;;;;;;;5.53;2.38;;;;;;;11.10;100.00;100128.41;5053018;28;20031;-82
2022/10/01 05:24:51;;;;;;;4.63;2.63;;;;;;;11.12;100.00;100125.75;5053138;28;20111;-81
2022/10/01 05:27:17;;;;;;;3.35;2.58;;;;;;;10.94;100.00;100101.31;5053038;28;20083;-82
2022/10/01 05:29:43;;;;;;;4.70;2.50;;;;;;;11.16;100.00;100143.47;5052860;28;20053;-81
2022/10/01 05:32:11;;;;;;;3.50;2.67;;;;;;;11.16;100.00;100146.06;5052948;28;20064;-81
2022/10/01 05:34:37;;;;;;;6.18;3.15;;;;;;;11.22;100.00;100146.53;5052632;28;20025;-83
2022/10/01 05:37:02;;;;;;;6.07;3.88;;;;;;;11.23;100.00;100150.75;5052686;28;20044;-81
2022/10/01 05:39:29;;;;;;;6.32;3.70;;;;;;;11.27;100.00;100152.16;5052576;28;20021;-81
2022/10/01 05:41:54;;;;;;;5.22;3.53;;;;;;;11.28;100.00;100151.22;5052822;28;20113;-82
2022/10/01 05:44:21;;;;;;;7.30;4.05;;;;;;;11.30;100.00;100157.09;5052902;28;20448;-80
2022/10/01 05:46:46;;;;;;;5.97;4.28;;;;;;;11.13;100.00;100127.38;5052660;28;20040;-82
2022/10/01 05:49:12;;;;;;;6.50;4.80;;;;;;;11.34;100.00;100168.84;5052478;28;20029;-79
2022/10/01 05:51:37;;;;;;;6.68;5.22;;;;;;;11.11;100.00;100124.06;5052631;28;20021;-81
2022/10/01 05:54:03;;;;;;;9.73;5.47;;;;;;;11.39;100.00;100172.72;5052463;28;20543;-83
2022/10/01 05:56:29;;;;;;;8.57;5.15;;;;;;;11.36;100.00;100166.97;5052665;28;20086;-81
2022/10/01 05:58:54;;;;;;;10.10;5.65;;;;;;;11.43;100.00;100181.06;5055524;28;20029;-81
2022/10/01 06:01:20;;;;;;;8.18;5.95;;;;;;;10.66;100.00;100045.75;5056423;28;20423;-81
2022/10/01 06:03:49;;;;;;;7.57;5.97;;;;;;;11.46;100.00;100175.66;5056291;28;20071;-82
2022/10/01 06:06:14;;;;;;;7.90;6.25;;;;;;;11.20;100.00;100133.69;5056315;28;20056;-82
2022/10/01 06:08:45;;;;;;;11.13;6.65;;;;;;;11.33;100.00;100159.47;5056515;28;20025;-82
2022/10/01 06:11:10;;;;;;;9.63;6.40;;;;;;;11.34;100.00;100168.84;5056372;28;20060;-82
2022/10/01 06:13:36;;;;;;;8.60;6.90;;;;;;;11.43;100.00;100188.81;5056303;28;20048;-81
2022/10/01 06:16:01;;;;;;;9.10;6.85;;;;;;;11.26;100.00;100158.28;5056204;28;20475;-81
2022/10/01 06:18:26;;;;;;;14.20;7.88;;;;;;;11.51;100.00;100196.00;5056116;28;20044;-81
2022/10/01 06:20:52;;;;;;;10.77;8.30;;;;;;;11.38;100.00;100181.41;5055989;28;20098;-82
2022/10/01 06:23:17;;;;;;;13.95;8.90;;;;;;;11.52;100.00;100208.00;5055997;28;20107;-81
2022/10/01 06:25:43;;;;;;;12.02;9.75;;;;;;;11.59;100.00;100212.56;5056105;28;20051;-82
2022/10/01 06:28:11;;;;;;;13.10;9.80;;;;;;;11.62;100.00;100207.16;5036848;28;20098;-81
2022/10/01 06:30:37;;;;;;;13.15;11.50;;;;;;;11.45;100.00;100176.59;5055872;28;20025;-83
2022/10/01 06:33:07;;;;;;;12.18;10.88;;;;;;;11.59;100.00;100204.78;5055975;28;20151;-82
2022/10/01 06:35:34;;;;;;;12.68;10.27;;;;;;;11.33;100.00;100165.44;5055979;28;20071;-80
2022/10/01 06:38:02;;;;;;;13.43;11.52;;;;;;;11.68;100.00;100198.91;5055869;28;20040;-83
2022/10/01 06:40:29;;;;;;;13.95;11.27;;;;;;;11.89;100.00;100211.97;5055555;28;20468;-82
2022/10/01 06:42:57;;;;;;;14.70;10.90;;;;;;;11.94;100.00;100175.41;5055770;28;20464;-81
2022/10/01 06:45:27;;;;;;;12.43;10.05;;;;;;;12.19;100.00;100205.31;5055543;28;20050;-82
2022/10/01 06:47:54;;;;;;;10.70;9.60;;;;;;;12.16;100.00;100201.22;5055471;28;20029;-82
2022/10/01 06:50:19;;;;;;;14.52;10.18;;;;;;;12.25;100.00;100208.25;5055487;28;20063;-82
2022/10/01 06:52:48;;;;;;;13.25;9.98;;;;;;;12.25;100.00;100202.25;5054589;28;20060;-81
2022/10/01 06:55:14;;;;;;;12.95;10.45;;;;;;;12.34;100.00;100201.50;5055844;28;20372;-81
2022/10/01 06:57:40;;;;;;;13.35;11.05;;;;;;;12.46;100.00;100218.66;5055342;28;20108;-81
2022/10/01 07:00:05;;;;;;;14.05;12.18;;;;;;;12.34;100.00;100198.94;5055505;28;20468;-83
2022/10/01 07:02:31;;;;;;;15.40;12.57;;;;;;;12.51;100.00;100216.53;5055356;28;20108;-79
2022/10/01 07:05:00;;;;;;;15.80;14.05;;;;;;;12.53;100.00;100222.41;5055149;28;20150;-86
2022/10/01 07:07:34;;;;;;;17.58;13.40;;;;;;;12.53;100.00;100229.34;5055156;28;20135;-84
2022/10/01 07:10:00;;;;;;;14.90;13.38;;;;;;;12.50;100.00;100232.19;5054253;28;20033;-86
2022/10/01 07:12:26;;;;;;;14.90;13.40;;;;;;;12.49;100.00;100236.56;5055488;28;20032;-85
2022/10/01 07:14:52;;;;;;;13.77;12.40;;;;;;;12.58;100.00;100240.16;5055121;28;20027;-88
2022/10/01 07:17:18;;;;;;;17.38;11.98;;;;;;;12.38;100.00;100202.91;5054840;28;20036;-85
2022/10/01 07:19:44;;;;;;;13.23;10.10;;;;;;;12.58;100.00;100229.78;5054887;28;20029;-88
2022/10/01 07:22:09;;;;;;;11.82;10.63;;;;;;;12.70;100.00;100238.34;5055063;28;20032;-84
2022/10/01 07:24:34;;;;;;;15.95;10.95;;;;;;;12.72;100.00;100242.47;5054854;28;20036;-81
2022/10/01 07:27:00;;;;;;;17.75;12.80;;;;;;;12.84;100.00;100244.03;5054655;28;20029;-83
2022/10/01 07:29:26;;;;;;;15.10;13.50;;;;;;;13.08;100.00;100255.94;5054683;28;20106;-88
2022/10/01 07:31:58;;;;;;;20.35;18.15;;;;;;;13.32;100.00;100245.34;5054623;28;20067;-86
2022/10/01 07:34:24;;;;;;;19.70;17.50;;;;;;;13.34;100.00;100215.72;5054677;28;20757;-87
2022/10/01 07:36:49;;;;;;;17.48;15.68;;;;;;;13.45;100.00;100227.78;5054862;28;20124;-81
2022/10/01 07:39:14;;;;;;;17.02;15.23;;;;;;;13.30;100.00;100216.94;5054601;28;20052;-82
2022/10/01 07:41:41;;;;;;;16.60;14.82;;;;;;;13.32;100.00;100255.72;5054317;28;20346;-84
2022/10/01 07:44:07;;;;;;;16.92;14.73;;;;;;;13.29;100.00;100274.94;5052906;28;20025;-83
2022/10/01 07:46:32;;;;;;;16.27;12.35;;;;;;;13.00;100.00;100250.56;5054693;28;20048;-86
2022/10/01 07:48:58;;;;;;;16.95;12.10;;;;;;;12.98;100.00;100268.84;5054225;28;20350;-79
2022/10/01 07:51:25;;;;;;;15.35;11.30;;;;;;;12.90;100.00;100284.19;5054453;28;20082;-81
2022/10/01 07:53:50;;;;;;;14.95;10.82;;;;;;;12.77;100.00;100279.16;5054499;28;20017;-79
2022/10/01 07:56:16;;;;;;;14.57;11.27;;;;;;;12.52;100.00;100262.19;5054065;28;20415;-85
2022/10/01 07:58:42;;;;;;;14.95;11.20;;;;;;;12.73;100.00;100305.44;5054279;28;20104;-78
2022/10/01 08:01:08;;;;;;;16.67;11.23;;;;;;;12.61;100.00;100289.13;5054475;28;20017;-85
2022/10/01 08:03:34;;;;;;;13.95;10.55;;;;;;;12.69;100.00;100304.06;5054040;28;20476;-80
2022/10/01 08:06:02;;;;;;;12.95;9.60;;;;;;;12.67;100.00;100295.56;5054048;28;20488;-82
2022/10/01 08:08:28;;;;;;;10.32;8.40;;;;;;;12.50;100.00;100268.44;5054005;28;20384;-85
2022/10/01 08:10:54;;;;;;;9.27;7.03;;;;;;;12.90;100.00;100318.72;5053981;28;20052;-85
2022/10/01 08:13:23;;;;;;;10.15;8.23;;;;;;;13.05;100.00;100305.44;5053855;28;20072;-80
2022/10/01 08:15:52;;;;;;;12.85;8.63;;;;;;;13.31;100.00;100300.75;5053904;28;20060;-81
2022/10/01 08:18:17;;;;;;;11.20;8.85;;;;;;;13.56;100.00;100320.25;5053443;28;20028;-82
2022/10/01 08:20:43;;;;;;;14.57;10.05;;;;;;;13.53;100.00;100317.94;5053830;28;20556;-84
2022/10/01 08:23:13;;;;;;;13.38;9.82;;;;;;;13.59;100.00;100338.19;5035718;28;20049;-84
2022/10/01 08:25:40;;;;;;;12.27;10.60;;;;;;;13.53;100.00;100336.91;5053761;28;20104;-73
2022/10/01 08:28:07;;;;;;;13.90;10.88;;;;;;;13.49;100.00;100351.09;5053586;28;20032;-79
2022/10/01 08:30:35;;;;;;;14.05;10.93;;;;;;;13.38;100.00;100348.56;5052365;28;20025;-86
2022/10/01 08:33:00;;;;;;;15.52;12.63;;;;;;;13.25;100.00;100335.75;5053490;28;20033;-86
2022/10/01 08:35:29;;;;;;;15.48;12.77;;;;;;;13.20;100.00;100323.19;5054022;28;20033;-82
2022/10/01 08:37:59;;;;;;;15.80;12.68;;;;;;;13.45;100.00;100353.09;5053446;28;20028;-82
2022/10/01 08:40:24;;;;;;;16.73;12.73;;;;;;;13.56;100.00;100352.22;5053531;28;20025;-83
2022/10/01 08:42:55;;;;;;;14.80;11.93;;;;;;;13.70;100.00;100356.28;5053308;28;20028;-86
2022/10/01 08:45:33;;;;;;;17.20;13.00;;;;;;;13.59;100.00;100318.25;5053480;28;20171;-84
2022/10/01 08:48:29;;;;;;;17.40;12.70;;;;;;;13.95;100.00;100353.25;5053037;28;20086;-85
2022/10/01 08:51:02;;;;;;;16.45;13.40;;;;;;;14.06;100.00;100349.78;5052931;28;20116;-85
2022/10/01 08:53:42;;;;;;;17.58;13.10;;;;;;;13.88;100.00;100309.78;5051249;28;20099;-83
2022/10/01 08:56:21;;;;;;;17.65;12.85;;;;;;;14.28;100.00;100344.38;5053000;28;20110;-80
2022/10/01 08:58:53;;;;;;;15.52;12.93;;;;;;;14.16;100.00;100303.88;5053215;28;20040;-79
2022/10/01 09:01:19;;;;;;;13.60;11.38;;;;;;;14.30;100.00;100331.25;5052981;28;20037;-79
2022/10/01 09:03:45;;;;;;;14.95;10.88;;;;;;;14.41;100.00;100358.88;5053057;28;20078;-82
2022/10/01 09:06:25;;;;;;;16.10;10.80;;;;;;;14.07;100.00;100305.50;5052984;28;20428;-81
2022/10/01 09:09:37;;;;;;;13.77;10.02;;;;;;;14.59;100.00;100368.53;5052773;28;20033;-81
2022/10/01 09:12:15;;;;;;;10.80;8.40;;;;;;;14.72;100.00;100375.25;5053039;28;20358;-80
2022/10/01 09:14:53;;;;;;;12.25;7.70;;;;;;;14.82;100.00;100379.53;5035092;28;20101;-78
2022/10/01 09:17:36;;;;;;;12.65;8.90;;;;;;;14.98;100.00;100362.59;5052838;28;20067;-79
2022/10/01 09:20:10;;;;;;;9.20;6.90;;;;;;;15.33;100.00;100381.03;5053211;28;20108;-83
2022/10/01 09:22:37;;;;;;;11.68;6.35;;;;;;;15.44;100.00;100390.50;5052992;28;20039;-79
2022/10/01 09:25:10;;;;;;;11.52;5.55;;;;;;;15.43;100.00;100368.03;5052964;28;20085;-78
2022/10/01 09:27:37;;;;;;;8.07;5.13;;;;;;;15.57;100.00;100385.81;5052540;28;20025;-77
2022/10/01 09:30:11;;;;;;;8.57;4.55;;;;;;;15.50;100.00;100403.75;5052676;28;20045;-79
2022/10/01 09:32:58;;;;;;;11.75;5.13;;;;;;;15.41;100.00;100407.19;5053954;28;20028;-74
2022/10/01 09:35:43;;;;;;;11.27;4.30;;;;;;;15.47;100.00;100396.25;5057209;28;20111;-83
2022/10/01 09:38:22;;;;;;;10.00;4.85;;;;;;;15.51;100.00;100381.16;5055196;28;20443;-81
2022/10/01 09:40:53;;;;;;;10.07;4.25;;;;;;;15.77;100.00;100392.66;5055851;28;20075;-76
2022/10/01 09:43:23;;;;;;;9.75;2.97;;;;;;;15.85;100.00;100381.56;5056730;28;20025;-80
2022/10/01 09:45:50;;;;;;;10.85;3.22;;;;;;;15.92;99.88;100400.84;5056433;28;20028;-78
2022/10/01 09:48:31;;;;;;;14.73;2.75;;;;;;;16.13;98.69;100397.22;5056668;28;20017;-79
2022/10/01 09:51:05;;;;;;;12.63;2.80;;;;;;;16.24;96.25;100399.66;5056504;28;20055;-78
2022/10/01 09:53:45;;;;;;;10.68;2.55;;;;;;;16.41;95.75;100387.63;5056409;28;20103;-77
2022/10/01 09:56:27;;;;;;;10.93;2.45;;;;;;;16.68;93.55;100413.72;5056564;28;20430;-77
2022/10/01 09:58:57;;;;;;;14.38;3.22;;;;;;;16.82;92.56;100402.00;5056587;28;20025;-77
2022/10/01 10:01:36;;;;;;;13.27;2.70;;;;;;;16.94;91.39;100413.84;5056505;28;20036;-78
2022/10/01 10:04:01;;;;;;;10.20;2.28;;;;;;;16.70;89.14;100388.31;5056291;28;20389;-81
2022/10/01 10:06:29;;;;;;;12.38;2.80;;;;;;;16.61;90.57;100405.63;5055737;28;20041;-84
2022/10/01 10:08:56;;;;;;;12.63;2.47;;;;;;;16.31;90.45;100430.19;5056310;28;20237;-80
2022/10/01 10:11:25;;;;;;;10.98;2.90;;;;;;;16.07;92.67;100429.88;5056123;28;20025;-82
2022/10/01 10:13:55;;;;;;;8.93;2.17;;;;;;;15.88;93.19;100427.31;5055820;28;20057;-82
2022/10/01 10:16:35;;;;;;;11.50;2.33;;;;;;;15.59;92.43;100415.13;5056114;28;20032;-82
2022/10/01 10:19:09;;;;;;;9.65;2.20;;;;;;;15.39;93.11;100422.13;5056203;28;20115;-82
2022/10/01 10:21:36;;;;;;;10.25;2.58;;;;;;;15.23;94.25;100436.63;5056104;28;20024;-83
2022/10/01 10:24:20;;;;;;;9.73;2.13;;;;;;;15.06;92.83;100449.38;5055965;28;20512;-84
2022/10/01 10:26:53;;;;;;;10.63;2.45;;;;;;;14.94;95.69;100450.41;5037951;28;20025;-82
2022/10/01 10:29:29;;;;;;;11.38;2.30;;;;;;;14.95;96.69;100438.25;5055647;28;20020;-80
2022/10/01 10:31:55;;;;;;;15.57;2.42;;;;;;;15.17;95.83;100471.81;5055894;28;20053;-82
2022/10/01 10:34:31;;;;;;;12.80;2.42;;;;;;;15.14;93.40;100459.91;5055913;28;20104;-82
2022/10/01 10:37:06;;;;;;;8.70;2.10;;;;;;;15.28;93.89;100465.69;5055632;28;20025;-82
2022/10/01 10:39:38;;;;;;;11.43;2.35;;;;;;;15.33;93.62;100484.28;5055924;28;20428;-83
2022/10/01 10:42:05;;;;;;;14.82;2.70;;;;;;;15.36;91.96;100484.03;5055641;28;20135;-82
2022/10/01 10:44:35;;;;;;;10.70;2.30;;;;;;;15.33;91.72;100463.47;5054421;28;20041;-81
2022/10/01 10:47:05;;;;;;;9.05;2.30;;;;;;;15.35;92.21;100436.38;5055536;28;20052;-78
2022/10/01 10:49:42;;;;;;;14.13;2.40;;;;;;;15.85;90.98;100497.91;5055387;28;20108;-79
2022/10/01 10:52:36;;;;;;;11.23;2.13;;;;;;;15.95;90.22;100489.13;5055335;28;20052;-78
2022/10/01 10:55:22;;;;;;;11.85;2.53;;;;;;;15.86;88.50;100483.91;4955180;28;20047;-77
2022/10/01 10:57:47;;;;;;;13.93;2.63;;;;;;;15.89;88.32;100518.31;4954979;29;20094;-81
2022/10/01 11:00:17;;;;;;;11.55;2.55;;;;;;;15.66;86.44;100507.38;4954012;29;20040;-82
2022/10/01 11:03:01;;;;;;;10.35;2.17;;;;;;;15.66;86.58;100506.53;4955318;29;20035;-83
2022/10/01 11:05:30;;;;;;;10.75;2.42;;;;;;;15.68;86.30;100523.66;4954924;29;20526;-84
2022/10/01 11:08:03;;;;;;;13.77;2.30;;;;;;;15.65;83.88;100525.72;4954886;29;20139;-78
2022/10/01 11:10:46;;;;;;;10.73;2.00;;;;;;;15.65;84.85;100538.75;4954654;29;20114;-80
2022/10/01 11:13:49;;;;;;;9.07;2.08;;;;;;;15.72;84.19;100538.03;4954513;29;20039;-76
2022/10/01 11:16:39;;;;;;;10.20;2.47;;;;;;;15.82;83.15;100543.25;4954676;29;20046;-84
2022/10/01 11:19:22;;;;;;;11.48;2.72;;;;;;;15.74;82.68;100543.94;4954459;29;20039;-82
2022/10/01 11:22:16;;;;;;;9.20;2.00;;;;;;;15.21;83.99;100504.41;4954553;29;20487;-79
2022/10/01 11:24:44;;;;;;;11.07;2.22;;;;;;;15.28;84.60;100552.34;4954451;29;20070;-84
2022/10/01 11:27:35;;;;;;;12.75;2.10;;;;;;;15.17;85.25;100550.69;4938560;29;20023;-83
2022/10/01 11:30:00;;;;;;;13.90;2.40;;;;;;;15.09;85.74;100557.50;4954111;29;20126;-78
2022/10/01 11:32:53;;;;;;;15.10;2.88;;;;;;;15.08;86.71;100559.28;5045687;28;20134;-83
2022/10/01 11:35:26;;;;;;;9.90;2.83;;;;;;;15.16;85.31;100556.00;5054742;28;20025;-80
2022/10/01 11:38:16;;;;;;;13.30;2.63;;;;;;;15.26;85.80;100571.66;5054262;28;20025;-84
2022/10/01 11:40:49;;;;;;;9.13;2.67;;;;;;;15.25;84.21;100565.63;5054767;28;20032;-83